createdAt,value
2018-03-11T11:51:45.983Z,16.70
2018-03-11T11:54:13.606Z,16.60
2018-03-11T11:56:41.157Z,16.60
2018-03-11T11:59:09.452Z,16.70
2018-03-11T12:01:37.760Z,16.80
2018-03-11T12:04:05.260Z,16.70
2018-03-11T12:06:32.787Z,16.60
2018-03-11T12:09:00.289Z,16.60
2018-03-11T12:11:27.811Z,16.70
2018-03-11T12:13:55.332Z,16.90
2018-03-11T12:16:22.848Z,17.00
2018-03-11T12:18:50.981Z,17.10
2018-03-11T12:21:18.528Z,17.10
2018-03-11T12:23:46.815Z,17.00
2018-03-11T12:26:15.309Z,16.90
2018-03-11T12:28:42.921Z,16.80
2018-03-11T12:31:11.249Z,16.50
2018-03-11T12:33:40.587Z,16.50
2018-03-11T12:36:09.078Z,16.50
2018-03-11T12:38:36.665Z,16.50
2018-03-11T12:41:04.625Z,16.50
2018-03-11T12:43:32.724Z,16.30
2018-03-11T12:46:00.247Z,16.20
2018-03-11T12:48:28.360Z,16.10
2018-03-11T12:50:56.062Z,16.10
2018-03-11T12:53:23.617Z,16.10
2018-03-11T12:55:51.147Z,16.30
2018-03-11T12:58:18.702Z,16.40
2018-03-11T13:00:46.955Z,16.60
2018-03-11T13:03:15.183Z,16.70
2018-03-11T13:05:45.726Z,16.60
2018-03-11T13:08:14.238Z,16.50
2018-03-11T13:10:41.749Z,16.40
2018-03-11T13:13:10.211Z,16.40
2018-03-11T13:15:37.752Z,16.40
2018-03-11T13:18:05.263Z,16.40
2018-03-11T13:20:44.685Z,16.40
2018-03-11T13:23:12.217Z,16.40
2018-03-11T13:25:39.842Z,16.30
2018-03-11T13:28:19.686Z,16.30
2018-03-11T13:30:47.232Z,16.30
2018-03-11T13:33:26.672Z,16.40
2018-03-11T13:35:54.957Z,16.40
2018-03-11T13:38:36.238Z,16.50
2018-03-11T13:41:05.043Z,16.40
2018-03-11T13:43:32.643Z,16.40
2018-03-11T13:46:11.929Z,16.40
2018-03-11T13:48:39.517Z,16.40
2018-03-11T13:51:07.125Z,16.40
2018-03-11T13:53:46.498Z,16.30
2018-03-11T13:56:14.747Z,16.30
2018-03-11T13:58:45.811Z,16.20
2018-03-11T14:01:13.646Z,16.20
2018-03-11T14:03:42.006Z,16.20
2018-03-11T14:06:09.620Z,16.20
2018-03-11T14:08:37.961Z,16.10
2018-03-11T14:11:06.252Z,16.10
2018-03-11T14:13:34.702Z,16.00
2018-03-11T14:16:02.889Z,16.00
2018-03-11T14:18:30.463Z,16.00
2018-03-11T14:20:58.837Z,15.90
2018-03-11T14:23:27.127Z,15.80
2018-03-11T14:25:55.443Z,15.80
2018-03-11T14:28:22.990Z,15.80
2018-03-11T14:30:50.578Z,15.70
2018-03-11T14:33:18.417Z,15.70
2018-03-11T14:35:46.070Z,15.70
2018-03-11T14:38:14.804Z,15.70
2018-03-11T14:40:42.980Z,15.70
2018-03-11T14:43:10.514Z,15.60
2018-03-11T14:45:38.031Z,15.60
2018-03-11T14:48:06.310Z,15.50
2018-03-11T14:50:34.606Z,15.40
2018-03-11T14:53:02.114Z,15.40
2018-03-11T14:55:29.823Z,15.40
2018-03-11T14:57:57.380Z,15.40
2018-03-11T15:00:25.890Z,15.30
2018-03-11T15:02:53.996Z,15.30
2018-03-11T15:05:22.461Z,15.30
2018-03-11T15:07:50.136Z,15.30
2018-03-11T15:10:17.665Z,15.30
2018-03-11T15:12:45.718Z,15.20
2018-03-11T15:15:13.249Z,15.20
2018-03-11T15:17:40.794Z,15.20
2018-03-11T15:20:08.308Z,15.20
2018-03-11T15:22:36.007Z,15.20
2018-03-11T15:25:05.060Z,15.20
2018-03-11T15:27:32.658Z,15.20
2018-03-11T15:30:00.192Z,15.20
2018-03-11T15:32:27.711Z,15.10
2018-03-11T15:34:55.228Z,15.10
2018-03-11T15:37:23.715Z,15.20
2018-03-11T15:39:52.449Z,15.10
2018-03-11T15:42:19.979Z,15.10
2018-03-11T15:44:48.285Z,15.00
2018-03-11T15:47:15.845Z,15.00
2018-03-11T15:49:43.488Z,15.00
2018-03-11T15:52:11.807Z,14.90
2018-03-11T15:54:39.327Z,14.90
2018-03-11T15:57:07.768Z,14.90
2018-03-11T15:59:35.283Z,14.90
2018-03-11T16:02:02.837Z,14.90
2018-03-11T16:04:30.353Z,14.90
2018-03-11T16:06:57.851Z,14.80
2018-03-11T16:09:25.420Z,14.80
2018-03-11T16:11:52.932Z,14.70
2018-03-11T16:14:20.459Z,14.50
2018-03-11T16:16:47.979Z,14.50
2018-03-11T16:19:15.523Z,14.50
2018-03-11T16:21:43.826Z,14.40
2018-03-11T16:24:11.350Z,14.40
2018-03-11T16:26:38.849Z,14.40
2018-03-11T16:29:06.364Z,14.40
2018-03-11T16:31:33.882Z,14.40
2018-03-11T16:34:01.408Z,14.40
2018-03-11T16:36:28.923Z,14.30
2018-03-11T16:38:56.462Z,14.30
2018-03-11T16:41:23.995Z,14.50
2018-03-11T16:46:54.626Z,15.30
2018-03-11T16:49:22.923Z,14.80
2018-03-11T16:51:50.439Z,14.80
2018-03-11T16:54:17.977Z,14.60
2018-03-11T16:56:45.551Z,14.40
2018-03-11T16:59:13.076Z,14.30
2018-03-11T17:01:40.577Z,14.20
2018-03-11T17:04:08.133Z,14.10
2018-03-11T17:06:35.653Z,14.00
2018-03-11T17:09:03.152Z,14.00
2018-03-11T17:13:08.648Z,14.00
2018-03-11T17:15:36.171Z,14.00
2018-03-11T17:18:03.697Z,14.00
2018-03-11T17:20:31.257Z,13.90
2018-03-11T17:22:58.780Z,13.90
2018-03-11T17:25:26.300Z,13.90
2018-03-11T17:27:53.908Z,13.80
2018-03-11T17:30:21.492Z,13.70
2018-03-11T17:32:49.027Z,13.80
2018-03-11T17:35:16.539Z,13.80
2018-03-11T17:37:44.100Z,13.70
2018-03-11T17:40:11.626Z,13.70
2018-03-11T17:42:39.162Z,13.60
2018-03-11T17:45:06.675Z,13.50
2018-03-11T17:47:34.212Z,13.50
2018-03-11T17:50:01.734Z,13.40
2018-03-11T17:52:29.754Z,13.40
2018-03-11T17:54:57.259Z,13.40
2018-03-11T17:57:24.776Z,13.50
2018-03-11T17:59:52.329Z,13.40
2018-03-11T18:02:19.833Z,13.40
2018-03-11T18:04:47.375Z,13.40
2018-03-11T18:07:15.709Z,13.30
2018-03-11T18:09:43.253Z,13.30
2018-03-11T18:12:10.771Z,13.30
2018-03-11T18:14:39.060Z,13.30
2018-03-11T18:17:06.578Z,13.30
2018-03-11T18:19:34.123Z,13.30
2018-03-11T18:22:01.658Z,13.20
2018-03-11T18:24:29.173Z,13.00
2018-03-11T18:26:57.487Z,13.00
2018-03-11T18:29:25.084Z,12.90
2018-03-11T18:31:52.605Z,13.00
2018-03-11T18:34:20.889Z,13.10
2018-03-11T18:36:48.553Z,13.00
2018-03-11T18:39:16.087Z,13.10
2018-03-11T18:41:44.393Z,13.20
2018-03-11T18:44:11.918Z,13.10
2018-03-11T18:46:40.193Z,13.00
2018-03-11T18:49:07.696Z,12.90
2018-03-11T18:51:35.240Z,12.90
2018-03-11T18:54:04.778Z,12.90
2018-03-11T18:56:32.699Z,12.80
2018-03-11T18:59:00.212Z,12.70
2018-03-11T19:01:27.722Z,12.60
2018-03-11T19:03:55.277Z,12.60
2018-03-11T19:06:22.981Z,12.80
2018-03-11T19:08:50.511Z,12.70
2018-03-11T19:11:18.089Z,12.70
2018-03-11T19:13:45.681Z,12.70
2018-03-11T19:16:13.994Z,12.70
2018-03-11T19:18:42.085Z,12.60
2018-03-11T19:21:10.356Z,12.70
2018-03-11T19:23:38.745Z,12.60
2018-03-11T19:26:06.286Z,12.70
2018-03-11T19:28:33.814Z,12.70
2018-03-11T19:31:02.105Z,12.70
2018-03-11T19:33:30.264Z,12.60
2018-03-11T19:35:58.583Z,12.70
2018-03-11T19:38:26.114Z,12.60
2018-03-11T19:40:53.679Z,12.60
2018-03-11T19:43:21.217Z,12.50
2018-03-11T19:45:49.673Z,12.40
2018-03-11T19:48:17.219Z,12.40
2018-03-11T19:50:44.763Z,12.40
2018-03-11T19:53:12.272Z,12.50
2018-03-11T19:55:39.839Z,12.60
2018-03-11T19:58:08.155Z,12.70
2018-03-11T20:00:35.717Z,12.60
2018-03-11T20:03:03.244Z,12.70
2018-03-11T20:05:31.549Z,12.70
2018-03-11T20:07:59.085Z,12.70
2018-03-11T20:10:26.605Z,12.70
2018-03-11T20:12:54.119Z,12.70
2018-03-11T20:15:22.404Z,12.70
2018-03-11T20:17:49.932Z,12.70
2018-03-11T20:20:18.289Z,12.70
2018-03-11T20:22:45.856Z,12.80
2018-03-11T20:25:14.347Z,12.70
2018-03-11T20:27:41.905Z,12.60
2018-03-11T20:30:10.223Z,12.70
2018-03-11T20:32:37.780Z,12.70
2018-03-11T20:35:05.442Z,12.60
2018-03-11T20:37:32.963Z,12.70
2018-03-11T20:40:01.278Z,12.60
2018-03-11T20:42:28.811Z,12.60
2018-03-11T20:44:56.347Z,12.60
2018-03-11T20:47:24.631Z,12.50
2018-03-11T20:49:52.206Z,12.50
2018-03-11T20:52:20.072Z,12.50
2018-03-11T20:54:47.668Z,12.50
2018-03-11T20:57:15.278Z,12.50
2018-03-11T20:59:43.601Z,12.50
2018-03-11T21:02:11.148Z,12.50
2018-03-11T21:04:39.437Z,12.50
2018-03-11T21:07:07.623Z,12.60
2018-03-11T21:09:35.153Z,12.50
2018-03-11T21:12:02.705Z,12.40
2018-03-11T21:14:30.461Z,12.40
2018-03-11T21:16:58.021Z,12.40
2018-03-11T21:19:25.581Z,12.40
2018-03-11T21:21:53.147Z,12.50
2018-03-11T21:24:20.664Z,12.30
2018-03-11T21:26:48.224Z,12.40
2018-03-11T21:29:15.757Z,12.40
2018-03-11T21:31:43.294Z,12.40
2018-03-11T21:34:13.810Z,12.30
2018-03-11T21:36:41.343Z,12.40
2018-03-11T21:39:09.659Z,12.40
2018-03-11T21:41:37.174Z,12.40
2018-03-11T21:44:04.730Z,12.40
2018-03-11T21:46:33.061Z,12.40
2018-03-11T21:49:00.554Z,12.40
2018-03-11T21:51:28.072Z,12.40
2018-03-11T21:53:55.694Z,12.40
2018-03-11T21:56:24.014Z,12.40
2018-03-11T21:58:51.571Z,12.40
2018-03-11T22:01:19.127Z,12.50
2018-03-11T22:03:46.675Z,12.30
2018-03-11T22:06:14.197Z,12.10
2018-03-11T22:08:42.503Z,12.20
2018-03-11T22:11:10.020Z,12.20
2018-03-11T22:13:37.568Z,12.20
2018-03-11T22:16:05.096Z,12.00
2018-03-11T22:18:32.650Z,12.10
2018-03-11T22:21:00.187Z,12.10
2018-03-11T22:23:27.729Z,12.20
2018-03-11T22:25:55.545Z,12.10
2018-03-11T22:28:23.078Z,11.90
2018-03-11T22:30:50.647Z,11.90
2018-03-11T22:33:18.935Z,11.80
2018-03-11T22:35:46.512Z,11.80
2018-03-11T22:38:14.067Z,11.80
2018-03-11T22:40:41.620Z,12.00
2018-03-11T22:43:09.172Z,12.00
2018-03-11T22:45:36.729Z,12.00
2018-03-11T22:48:04.250Z,11.80
2018-03-11T22:50:31.799Z,11.80
2018-03-11T22:52:59.332Z,11.90
2018-03-11T22:55:26.844Z,12.00
2018-03-11T22:57:54.361Z,12.10
2018-03-11T23:00:21.876Z,12.20
2018-03-11T23:02:49.429Z,12.10
2018-03-11T23:05:16.963Z,12.00
2018-03-11T23:07:45.281Z,12.00
2018-03-11T23:10:12.807Z,12.00
2018-03-11T23:12:41.098Z,12.20
2018-03-11T23:15:08.664Z,12.20
2018-03-11T23:17:36.224Z,12.30
2018-03-11T23:20:03.864Z,12.20
2018-03-11T23:22:31.389Z,12.10
2018-03-11T23:24:58.908Z,12.10
2018-03-11T23:27:26.435Z,12.20
2018-03-11T23:29:54.745Z,12.20
2018-03-11T23:32:22.295Z,12.20
2018-03-11T23:34:49.827Z,12.20
2018-03-11T23:37:17.325Z,12.00
2018-03-11T23:39:44.936Z,12.10
2018-03-11T23:44:46.223Z,12.10
2018-03-11T23:47:13.748Z,12.10
2018-03-11T23:49:41.314Z,12.10
2018-03-11T23:52:09.709Z,12.10
2018-03-11T23:54:38.013Z,12.10
2018-03-11T23:57:05.549Z,12.10
2018-03-11T23:59:33.838Z,12.20
